Reecon Whale — 9HA2885 — position and weather

sailwx.info

Track history (hours):
 
Tides and Currents Weather Stations Pressure Air Temp Water Temp Dewpoint Dewpoint Depression Visibility Wind Speed Wind Dir Waves Ship Positions

Reecon Whale

Last reported at 2014-Aug-21 07:32 UTC. Time now 2014-Aug-21 08:20 UTC.
Position N 38°42' W 009°10'.

Length 145 m; draft 8.6 m.

Type: Ship. MMSI: 256579000.

Date/timePositionNaut miles runAvg speedWind from/ knotsBaromVisibWave heightAir tempDewpointWater temp
2014-Aug-21 07:32N 38°42' W 009°10'0 0.0
2014-Aug-21 06:32N 38°42' W 009°10'0 0.0
2014-Aug-21 05:31N 38°42' W 009°10'0 0.0
2014-Aug-21 04:32N 38°42' W 009°10'0 0.0
2014-Aug-21 03:31N 38°42' W 009°10'0 0.0
2014-Aug-21 02:31N 38°42' W 009°10'0 0.0
2014-Aug-21 01:32N 38°42' W 009°10'0 0.0
2014-Aug-21 00:32N 38°42' W 009°10'0 0.0
2014-Aug-20 23:31N 38°42' W 009°10'0 0.0
2014-Aug-20 22:31N 38°42' W 009°10'0 0.0
2014-Aug-20 21:31N 38°42' W 009°10'0 0.0
2014-Aug-20 20:32N 38°42' W 009°10'0 0.0
2014-Aug-20 19:31N 38°42' W 009°10'0 0.0
2014-Aug-20 18:32N 38°42' W 009°10'0 0.0
2014-Aug-20 17:31N 38°42' W 009°10'0 0.0
2014-Aug-20 16:31N 38°42' W 009°10'1 0.9
2014-Aug-20 15:34N 38°41' W 009°11'5 5.5
2014-Aug-20 14:33N 38°41' W 009°18'1010.2
2014-Aug-20 13:33N 38°37' W 009°30'1510.5
2014-Aug-20 12:05N 38°49' W 009°44'712.9
2014-Aug-20 11:31N 38°56' W 009°44'1712.7
2014-Aug-20 10:11N 39°13' W 009°44'4811.8
2014-Aug-20 06:06N 39°60' W 009°27'4111.7
2014-Aug-20 02:34N 40°38' W 009°06'50 1.7
2014-Aug-18 20:24N 39°53' W 009°35'6310.5
2014-Aug-18 14:25N 38°51' W 009°51'2010.6
2014-Aug-18 12:30N 38°31' W 009°48'5510.5
2014-Aug-18 07:15N 37°38' W 009°32'811.2
2014-Aug-18 06:31N 37°30' W 009°30'1111.0
2014-Aug-18 05:33N 37°19' W 009°26'1111.4
2014-Aug-18 04:33N 37°08' W 009°23'1111.3
2014-Aug-18 03:33N 36°57' W 009°20'1110.7
2014-Aug-18 02:33N 36°48' W 009°14'1110.6
2014-Aug-18 01:33N 36°42' W 009°02'1111.2
2014-Aug-18 00:33N 36°39' W 008°49'  
2014-Aug-14 08:32N 38°28' W 009°24'1212.3
2014-Aug-14 07:33N 38°40' W 009°19'8 7.6
2014-Aug-14 06:32N 38°42' W 009°10'0 0.0
2014-Aug-14 05:32N 38°42' W 009°10'0 0.0
2014-Aug-14 04:32N 38°42' W 009°10'0 0.0
2014-Aug-14 03:32N 38°42' W 009°10'0 0.0
2014-Aug-14 02:32N 38°42' W 009°10'0 0.0
2014-Aug-14 01:32N 38°42' W 009°10'0 0.0
2014-Aug-14 00:32N 38°42' W 009°10'0 0.0
2014-Aug-13 23:32N 38°42' W 009°10'0 0.0
2014-Aug-13 22:32N 38°42' W 009°10'0 0.0
2014-Aug-13 21:32N 38°42' W 009°10'0 0.0
2014-Aug-13 20:32N 38°42' W 009°10'0 0.0
2014-Aug-13 19:32N 38°42' W 009°10'0 0.0
2014-Aug-13 18:32N 38°42' W 009°10'0 0.0
2014-Aug-13 17:32N 38°42' W 009°10'0 0.0
2014-Aug-13 16:32N 38°42' W 009°10'0 0.0
2014-Aug-13 15:32N 38°42' W 009°10'0 0.0
2014-Aug-13 14:32N 38°42' W 009°10'0 0.0
2014-Aug-13 13:32N 38°42' W 009°10'0 0.0
2014-Aug-13 12:32N 38°42' W 009°10'0 0.3
2014-Aug-13 11:33N 38°42' W 009°10'8 8.3
2014-Aug-13 10:33N 38°39' W 009°20'102 2.2
2014-Aug-11 12:28N 36°57' W 009°20'2210.7
2014-Aug-11 10:24N 36°42' W 009°00'1011.4
2014-Aug-11 09:33N 36°39' W 008°49'1211.6
2014-Aug-11 08:33N 36°35' W 008°35'  
Track history (hours):
 
Tides and Currents Weather Stations Pressure Air Temp Water Temp Dewpoint Dewpoint Depression Visibility Wind Speed Wind Dir Waves Ship Positions

Reecon Whale

Last reported at 2014-Aug-21 07:32 UTC. Time now 2014-Aug-21 08:20 UTC.
Position N 38°42' W 009°10'.

Length 145 m; draft 8.6 m.

Type: Ship. MMSI: 256579000.

Date/timePositionNaut miles runAvg speedWind from/ knotsBaromVisibWave heightAir tempDewpointWater temp
2014-Aug-21 07:32N 38°42' W 009°10'0 0.0
2014-Aug-21 06:32N 38°42' W 009°10'0 0.0
2014-Aug-21 05:31N 38°42' W 009°10'0 0.0
2014-Aug-21 04:32N 38°42' W 009°10'0 0.0
2014-Aug-21 03:31N 38°42' W 009°10'0 0.0
2014-Aug-21 02:31N 38°42' W 009°10'0 0.0
2014-Aug-21 01:32N 38°42' W 009°10'0 0.0
2014-Aug-21 00:32N 38°42' W 009°10'0 0.0
2014-Aug-20 23:31N 38°42' W 009°10'0 0.0
2014-Aug-20 22:31N 38°42' W 009°10'0 0.0
2014-Aug-20 21:31N 38°42' W 009°10'0 0.0
2014-Aug-20 20:32N 38°42' W 009°10'0 0.0
2014-Aug-20 19:31N 38°42' W 009°10'0 0.0
2014-Aug-20 18:32N 38°42' W 009°10'0 0.0
2014-Aug-20 17:31N 38°42' W 009°10'0 0.0
2014-Aug-20 16:31N 38°42' W 009°10'1 0.9
2014-Aug-20 15:34N 38°41' W 009°11'5 5.5
2014-Aug-20 14:33N 38°41' W 009°18'1010.2
2014-Aug-20 13:33N 38°37' W 009°30'1510.5
2014-Aug-20 12:05N 38°49' W 009°44'712.9
2014-Aug-20 11:31N 38°56' W 009°44'1712.7
2014-Aug-20 10:11N 39°13' W 009°44'4811.8
2014-Aug-20 06:06N 39°60' W 009°27'4111.7
2014-Aug-20 02:34N 40°38' W 009°06'50 1.7
2014-Aug-18 20:24N 39°53' W 009°35'6310.5
2014-Aug-18 14:25N 38°51' W 009°51'2010.6
2014-Aug-18 12:30N 38°31' W 009°48'5510.5
2014-Aug-18 07:15N 37°38' W 009°32'811.2
2014-Aug-18 06:31N 37°30' W 009°30'1111.0
2014-Aug-18 05:33N 37°19' W 009°26'1111.4
2014-Aug-18 04:33N 37°08' W 009°23'1111.3
2014-Aug-18 03:33N 36°57' W 009°20'1110.7
2014-Aug-18 02:33N 36°48' W 009°14'1110.6
2014-Aug-18 01:33N 36°42' W 009°02'1111.2
2014-Aug-18 00:33N 36°39' W 008°49'  
2014-Aug-14 08:32N 38°28' W 009°24'1212.3
2014-Aug-14 07:33N 38°40' W 009°19'8 7.6
2014-Aug-14 06:32N 38°42' W 009°10'0 0.0
2014-Aug-14 05:32N 38°42' W 009°10'0 0.0
2014-Aug-14 04:32N 38°42' W 009°10'0 0.0
2014-Aug-14 03:32N 38°42' W 009°10'0 0.0
2014-Aug-14 02:32N 38°42' W 009°10'0 0.0
2014-Aug-14 01:32N 38°42' W 009°10'0 0.0
2014-Aug-14 00:32N 38°42' W 009°10'0 0.0
2014-Aug-13 23:32N 38°42' W 009°10'0 0.0
2014-Aug-13 22:32N 38°42' W 009°10'0 0.0
2014-Aug-13 21:32N 38°42' W 009°10'0 0.0
2014-Aug-13 20:32N 38°42' W 009°10'0 0.0
2014-Aug-13 19:32N 38°42' W 009°10'0 0.0
2014-Aug-13 18:32N 38°42' W 009°10'0 0.0
2014-Aug-13 17:32N 38°42' W 009°10'0 0.0
2014-Aug-13 16:32N 38°42' W 009°10'0 0.0
2014-Aug-13 15:32N 38°42' W 009°10'0 0.0
2014-Aug-13 14:32N 38°42' W 009°10'0 0.0
2014-Aug-13 13:32N 38°42' W 009°10'0 0.0
2014-Aug-13 12:32N 38°42' W 009°10'0 0.3
2014-Aug-13 11:33N 38°42' W 009°10'8 8.3
2014-Aug-13 10:33N 38°39' W 009°20'102 2.2
2014-Aug-11 12:28N 36°57' W 009°20'2210.7
2014-Aug-11 10:24N 36°42' W 009°00'1011.4
2014-Aug-11 09:33N 36°39' W 008°49'1211.6
2014-Aug-11 08:33N 36°35' W 008°35'  

Dump ship's entire track history